createdAt,value
2022-12-15T00:00:11.967Z,-13.47
2022-12-15T00:01:12.022Z,-13.48
2022-12-15T00:02:11.886Z,-13.47
2022-12-15T00:03:11.960Z,-13.49
2022-12-15T00:04:11.711Z,-13.49
2022-12-15T00:05:11.667Z,-13.52
2022-12-15T00:06:11.875Z,-13.51
2022-12-15T00:07:11.548Z,-13.51
2022-12-15T00:08:11.468Z,-13.49
2022-12-15T00:09:14.236Z,-13.48
2022-12-15T00:10:11.367Z,-13.49
2022-12-15T00:11:11.317Z,-13.51
2022-12-15T00:12:11.242Z,-13.51
2022-12-15T00:13:11.178Z,-13.49
2022-12-15T00:14:11.117Z,-13.51
2022-12-15T00:16:15.945Z,-13.48
2022-12-15T00:17:16.192Z,-13.48
2022-12-15T00:18:15.791Z,-13.46
2022-12-15T00:19:15.755Z,-13.46
2022-12-15T00:20:15.678Z,-13.44
2022-12-15T00:21:15.621Z,-13.47
2022-12-15T00:22:15.531Z,-13.46
2022-12-15T00:23:15.757Z,-13.47
2022-12-15T00:25:20.245Z,-13.51
2022-12-15T00:26:26.134Z,-13.46
2022-12-15T00:27:26.173Z,-13.45
2022-12-15T00:28:26.213Z,-13.44
2022-12-15T00:29:26.028Z,-13.42
2022-12-15T00:30:25.937Z,-13.42
2022-12-15T00:31:25.991Z,-13.40
2022-12-15T00:32:25.808Z,-13.38
2022-12-15T00:33:25.783Z,-13.36
2022-12-15T00:34:25.933Z,-13.33
2022-12-15T00:35:25.804Z,-13.34
2022-12-15T00:36:25.562Z,-13.33
2022-12-15T00:37:25.553Z,-13.28
2022-12-15T00:38:25.453Z,-13.27
2022-12-15T00:39:25.427Z,-13.24
2022-12-15T00:40:25.342Z,-13.22
2022-12-15T00:41:25.324Z,-13.21
2022-12-15T00:42:25.231Z,-13.16
2022-12-15T00:43:25.185Z,-13.18
2022-12-15T00:44:25.086Z,-13.17
2022-12-15T00:45:25.050Z,-13.15
2022-12-15T00:46:25.131Z,-13.09
2022-12-15T00:47:25.077Z,-13.10
2022-12-15T00:48:24.861Z,-13.12
2022-12-15T00:49:24.811Z,-13.13
2022-12-15T00:50:24.741Z,-13.11
2022-12-15T00:51:24.690Z,-13.13
2022-12-15T00:52:24.639Z,-13.09
2022-12-15T00:53:24.601Z,-13.09
2022-12-15T00:54:24.507Z,-13.06
2022-12-15T00:55:24.448Z,-13.04
2022-12-15T00:56:24.395Z,-13.04
2022-12-15T00:57:24.478Z,-12.99
2022-12-15T00:58:24.552Z,-12.98
2022-12-15T00:59:24.191Z,-12.93
2022-12-15T01:00:24.131Z,-12.86
2022-12-15T01:01:24.161Z,-12.85
2022-12-15T01:02:24.130Z,-12.85
2022-12-15T01:03:24.128Z,-12.88
2022-12-15T01:04:23.945Z,-12.86
2022-12-15T01:05:23.856Z,-12.85
2022-12-15T01:06:24.240Z,-12.83
2022-12-15T01:07:23.751Z,-12.83
2022-12-15T01:08:23.968Z,-12.78
2022-12-15T01:09:23.597Z,-12.75
2022-12-15T01:10:23.836Z,-12.74
2022-12-15T01:11:23.490Z,-12.74
2022-12-15T01:12:23.375Z,-12.74
2022-12-15T01:13:23.319Z,-12.73
2022-12-15T01:14:23.267Z,-12.71
2022-12-15T01:15:23.203Z,-12.71
2022-12-15T01:16:23.316Z,-12.72
2022-12-15T01:17:23.063Z,-12.70
2022-12-15T01:18:22.989Z,-12.71
2022-12-15T01:19:23.079Z,-12.68
2022-12-15T01:20:22.847Z,-12.70
2022-12-15T01:21:24.953Z,-12.68
2022-12-15T01:22:22.746Z,-12.66
2022-12-15T01:23:22.718Z,-12.65
2022-12-15T01:24:22.590Z,-12.66
2022-12-15T01:25:22.565Z,-12.65
2022-12-15T01:26:22.472Z,-12.63
2022-12-15T01:27:22.409Z,-12.62
2022-12-15T01:28:22.388Z,-12.63
2022-12-15T01:29:22.314Z,-12.63
2022-12-15T01:30:22.276Z,-12.62
2022-12-15T01:31:22.230Z,-12.67
2022-12-15T01:32:22.101Z,-12.67
2022-12-15T01:33:22.044Z,-12.68
2022-12-15T01:34:22.023Z,-12.68
2022-12-15T01:35:21.988Z,-12.73
2022-12-15T01:36:21.878Z,-12.75
2022-12-15T01:37:21.776Z,-12.75
2022-12-15T01:38:21.727Z,-12.71
2022-12-15T01:39:21.683Z,-12.73
2022-12-15T01:40:21.923Z,-12.74
2022-12-15T01:41:21.620Z,-12.73
2022-12-15T01:42:21.501Z,-12.72
2022-12-15T01:43:21.433Z,-12.70
2022-12-15T01:44:21.408Z,-12.69
2022-12-15T01:45:21.448Z,-12.70
2022-12-15T01:46:21.613Z,-12.63
2022-12-15T01:47:21.217Z,-12.60
2022-12-15T01:48:21.125Z,-12.65
2022-12-15T01:49:21.087Z,-12.65
2022-12-15T01:50:21.009Z,-12.63
2022-12-15T01:51:21.022Z,-12.64
2022-12-15T01:52:20.949Z,-12.64
2022-12-15T01:53:20.860Z,-12.65
2022-12-15T01:54:20.831Z,-12.65
2022-12-15T01:55:20.755Z,-12.64
2022-12-15T01:56:20.674Z,-12.64
2022-12-15T01:57:26.791Z,-12.58
2022-12-15T01:58:26.544Z,-12.59
2022-12-15T01:59:26.482Z,-12.54
2022-12-15T02:00:26.482Z,-12.53
2022-12-15T02:01:26.504Z,-12.50
2022-12-15T02:02:26.785Z,-12.49
2022-12-15T02:03:26.796Z,-12.48
2022-12-15T02:04:26.182Z,-12.43
2022-12-15T02:05:26.109Z,-12.42
2022-12-15T02:06:26.040Z,-12.42
2022-12-15T02:07:25.960Z,-12.41
2022-12-15T02:09:37.011Z,-12.33
2022-12-15T02:10:36.771Z,-12.30
2022-12-15T02:11:36.695Z,-12.29
2022-12-15T02:12:36.923Z,-12.26
2022-12-15T02:13:36.581Z,-12.25
2022-12-15T02:14:36.551Z,-12.24
2022-12-15T02:15:36.484Z,-12.24
2022-12-15T02:16:36.481Z,-12.20
2022-12-15T02:17:36.365Z,-12.22
2022-12-15T02:18:36.321Z,-12.21
2022-12-15T02:19:36.250Z,-12.20
2022-12-15T02:20:36.193Z,-12.19
2022-12-15T02:21:36.112Z,-12.18
2022-12-15T02:22:36.048Z,-12.19
2022-12-15T02:23:35.975Z,-12.20
2022-12-15T02:24:35.898Z,-12.21
2022-12-15T02:25:35.814Z,-12.20
2022-12-15T02:26:35.788Z,-12.19
2022-12-15T02:27:35.837Z,-12.19
2022-12-15T02:28:39.516Z,-12.15
2022-12-15T02:29:39.592Z,-12.14
2022-12-15T02:30:39.470Z,-12.13
2022-12-15T02:31:39.521Z,-12.12
2022-12-15T02:32:39.390Z,-12.07
2022-12-15T02:33:39.359Z,-12.06
2022-12-15T02:34:39.228Z,-12.07
2022-12-15T02:35:39.184Z,-12.06
2022-12-15T02:36:39.133Z,-12.01
2022-12-15T02:37:39.081Z,-12.03
2022-12-15T02:38:39.118Z,-12.00
2022-12-15T02:39:38.945Z,-11.98
2022-12-15T02:42:32.691Z,-12.00
2022-12-15T02:43:33.239Z,-12.01
2022-12-15T02:44:32.780Z,-11.99
2022-12-15T02:45:32.689Z,-12.00
2022-12-15T02:46:32.561Z,-12.00
2022-12-15T02:47:32.594Z,-11.98
2022-12-15T02:48:32.374Z,-12.00
2022-12-15T02:49:32.358Z,-11.96
2022-12-15T02:50:32.553Z,-11.92
2022-12-15T02:51:32.207Z,-11.88
2022-12-15T02:52:32.151Z,-11.89
2022-12-15T02:53:32.519Z,-11.88
2022-12-15T02:54:32.035Z,-11.86
2022-12-15T02:55:32.000Z,-11.86
2022-12-15T02:56:32.032Z,-11.88
2022-12-15T02:57:31.839Z,-11.85
2022-12-15T02:58:31.776Z,-11.85
2022-12-15T02:59:31.773Z,-11.85
2022-12-15T03:00:31.666Z,-11.84
2022-12-15T03:01:31.843Z,-11.85
2022-12-15T03:02:31.941Z,-11.85
2022-12-15T03:03:31.883Z,-11.84
2022-12-15T03:04:31.459Z,-11.86
2022-12-15T03:05:31.434Z,-11.86
2022-12-15T03:06:31.330Z,-11.85
2022-12-15T03:07:31.294Z,-11.85
2022-12-15T03:08:31.218Z,-11.88
2022-12-15T03:09:31.170Z,-11.85
2022-12-15T03:10:31.112Z,-11.82
2022-12-15T03:11:31.042Z,-11.84
2022-12-15T03:12:30.971Z,-11.79
2022-12-15T03:13:31.291Z,-11.80
2022-12-15T03:14:30.873Z,-11.78
2022-12-15T03:15:35.303Z,-11.79
2022-12-15T03:16:30.777Z,-11.79
2022-12-15T03:17:30.679Z,-11.79
2022-12-15T03:18:30.579Z,-11.77
2022-12-15T03:19:30.578Z,-11.81
2022-12-15T03:20:30.472Z,-11.80
2022-12-15T03:21:30.392Z,-11.79
2022-12-15T03:22:30.321Z,-11.77
2022-12-15T03:23:30.693Z,-11.76
2022-12-15T03:24:30.231Z,-11.74
2022-12-15T03:25:30.141Z,-11.70
2022-12-15T03:26:30.163Z,-11.69
2022-12-15T03:27:30.017Z,-11.70
2022-12-15T03:28:29.956Z,-11.69
2022-12-15T03:29:29.926Z,-11.68
2022-12-15T03:30:29.835Z,-11.68
2022-12-15T03:31:29.894Z,-11.68
2022-12-15T03:32:29.845Z,-11.67
2022-12-15T03:33:29.927Z,-11.68
2022-12-15T03:34:29.662Z,-11.67
2022-12-15T03:35:29.542Z,-11.69
2022-12-15T03:36:29.446Z,-11.71
2022-12-15T03:37:29.415Z,-11.69
2022-12-15T03:38:29.639Z,-11.69
2022-12-15T03:39:29.349Z,-11.67
2022-12-15T03:40:29.220Z,-11.65
2022-12-15T03:41:29.194Z,-11.64
2022-12-15T03:42:29.124Z,-11.63
2022-12-15T03:43:29.524Z,-11.62
2022-12-15T03:44:29.126Z,-11.60
2022-12-15T03:45:28.994Z,-11.62
2022-12-15T03:46:28.960Z,-11.62
2022-12-15T03:47:28.866Z,-11.65
2022-12-15T03:48:28.779Z,-11.65
2022-12-15T03:49:28.726Z,-11.68
2022-12-15T03:50:28.735Z,-11.66
2022-12-15T03:51:28.598Z,-11.66
2022-12-15T03:52:28.539Z,-11.66
2022-12-15T03:53:28.829Z,-11.67
2022-12-15T03:54:28.426Z,-11.68
2022-12-15T03:55:28.375Z,-11.69
2022-12-15T03:56:28.333Z,-11.70
2022-12-15T03:57:28.268Z,-11.73
2022-12-15T03:58:28.190Z,-11.70
2022-12-15T03:59:28.145Z,-11.69
2022-12-15T04:00:28.123Z,-11.69
2022-12-15T04:01:28.337Z,-11.67
2022-12-15T04:02:28.215Z,-11.68
2022-12-15T04:03:28.369Z,-11.67
2022-12-15T04:04:28.390Z,-11.65
2022-12-15T04:05:27.823Z,-11.65
2022-12-15T04:06:27.770Z,-11.66
2022-12-15T04:07:27.719Z,-11.66
2022-12-15T04:08:27.696Z,-11.68
2022-12-15T04:09:27.617Z,-11.69
2022-12-15T04:10:33.591Z,-11.71
2022-12-15T04:11:27.515Z,-11.71
2022-12-15T04:12:27.471Z,-11.74
2022-12-15T04:13:27.613Z,-11.75
2022-12-15T04:14:27.360Z,-11.75
2022-12-15T04:15:27.285Z,-11.76
2022-12-15T04:16:27.261Z,-11.77
2022-12-15T04:17:33.075Z,-11.77
2022-12-15T04:18:33.140Z,-11.78
2022-12-15T04:19:33.202Z,-11.80
2022-12-15T04:20:38.912Z,-11.81
2022-12-15T04:21:38.949Z,-11.81
2022-12-15T04:22:38.908Z,-11.80
2022-12-15T04:23:38.815Z,-11.80
2022-12-15T04:24:38.877Z,-11.80
2022-12-15T04:25:39.141Z,-11.81
2022-12-15T04:26:38.602Z,-11.83
2022-12-15T04:27:38.557Z,-11.84
2022-12-15T04:28:38.496Z,-11.84
2022-12-15T04:29:38.416Z,-11.83
2022-12-15T04:30:38.410Z,-11.84
2022-12-15T04:31:38.274Z,-11.86
2022-12-15T04:32:38.195Z,-11.90
2022-12-15T04:33:38.835Z,-11.90
2022-12-15T04:34:38.085Z,-11.88
2022-12-15T04:35:38.043Z,-11.92
2022-12-15T04:36:43.007Z,-11.92
2022-12-15T04:37:42.914Z,-11.95
2022-12-15T04:38:50.277Z,-11.93
2022-12-15T04:39:42.809Z,-11.95
2022-12-15T04:40:42.745Z,-11.92
2022-12-15T04:41:47.570Z,-11.96
2022-12-15T04:42:52.505Z,-11.92
2022-12-15T04:43:52.580Z,-11.94
2022-12-15T04:44:52.493Z,-11.91
2022-12-15T04:45:52.583Z,-11.91
2022-12-15T04:46:52.501Z,-11.92
2022-12-15T04:47:52.351Z,-11.92
2022-12-15T04:48:52.262Z,-11.93
2022-12-15T04:49:52.234Z,-11.91
2022-12-15T04:50:52.163Z,-11.94
2022-12-15T04:51:52.124Z,-11.93
2022-12-15T04:52:52.341Z,-11.95
2022-12-15T04:53:52.017Z,-11.95
2022-12-15T04:54:51.954Z,-11.94
2022-12-15T04:55:51.900Z,-11.96
2022-12-15T04:56:51.846Z,-11.97
2022-12-15T04:57:51.815Z,-11.96
2022-12-15T04:58:51.775Z,-11.97
2022-12-15T04:59:51.743Z,-11.97
2022-12-15T05:00:51.649Z,-11.96
2022-12-15T05:01:51.781Z,-12.00
2022-12-15T05:02:51.611Z,-11.98
2022-12-15T05:03:51.573Z,-12.01
2022-12-15T05:04:51.641Z,-12.03
2022-12-15T05:05:51.404Z,-12.03
2022-12-15T05:06:51.324Z,-11.99
2022-12-15T05:07:51.255Z,-11.99
2022-12-15T05:08:51.181Z,-12.00
2022-12-15T05:09:51.136Z,-11.99
2022-12-15T05:10:51.109Z,-12.03
2022-12-15T05:11:51.017Z,-12.00
2022-12-15T05:12:50.972Z,-12.03
2022-12-15T05:13:50.903Z,-11.99
2022-12-15T05:14:50.840Z,-11.99
2022-12-15T05:15:50.861Z,-11.99
2022-12-15T05:16:50.970Z,-11.95
2022-12-15T05:17:50.715Z,-11.98
2022-12-15T05:18:50.637Z,-11.97
2022-12-15T05:19:56.492Z,-11.98
2022-12-15T05:20:56.506Z,-11.95
2022-12-15T05:21:56.444Z,-11.98
2022-12-15T05:23:01.282Z,-11.97
2022-12-15T05:24:01.336Z,-11.96
2022-12-15T05:25:01.250Z,-11.97
2022-12-15T05:26:01.292Z,-11.97
2022-12-15T05:27:01.421Z,-11.93
2022-12-15T05:28:01.136Z,-11.92
2022-12-15T05:29:01.056Z,-11.93
2022-12-15T05:30:01.062Z,-11.92
2022-12-15T05:31:00.941Z,-11.95
2022-12-15T05:32:00.885Z,-11.96
2022-12-15T05:33:00.824Z,-11.95
2022-12-15T05:34:05.196Z,-11.96
2022-12-15T05:35:00.701Z,-11.95
2022-12-15T05:36:00.668Z,-11.93
2022-12-15T05:37:00.585Z,-11.88
2022-12-15T05:38:00.684Z,-11.86
2022-12-15T05:39:00.640Z,-11.83
2022-12-15T05:40:00.425Z,-11.86
2022-12-15T05:41:00.374Z,-11.85
2022-12-15T05:42:00.293Z,-11.84
2022-12-15T05:43:00.224Z,-11.83
2022-12-15T05:44:00.191Z,-11.83
2022-12-15T05:45:00.126Z,-11.77
2022-12-15T05:46:00.204Z,-11.78
2022-12-15T05:47:00.462Z,-11.76
2022-12-15T05:47:59.961Z,-11.74
2022-12-15T05:49:00.037Z,-11.70
2022-12-15T05:49:59.849Z,-11.68
2022-12-15T05:50:59.795Z,-11.64
2022-12-15T05:51:59.773Z,-11.62
2022-12-15T05:52:59.653Z,-11.56
2022-12-15T05:53:59.627Z,-11.52
2022-12-15T05:54:59.523Z,-11.50
2022-12-15T05:55:59.501Z,-11.48
2022-12-15T05:56:59.576Z,-11.45
2022-12-15T05:57:59.381Z,-11.47
2022-12-15T06:00:53.266Z,-11.47
2022-12-15T06:01:53.340Z,-11.44
2022-12-15T06:02:53.383Z,-11.41
2022-12-15T06:04:57.919Z,-11.42
2022-12-15T06:05:57.907Z,-11.44
2022-12-15T06:06:57.838Z,-11.44
2022-12-15T06:07:57.828Z,-11.47
2022-12-15T06:08:57.708Z,-11.49
2022-12-15T06:09:57.647Z,-11.50
2022-12-15T06:10:57.614Z,-11.50
2022-12-15T06:11:57.533Z,-11.53
2022-12-15T06:12:57.441Z,-11.53
2022-12-15T06:13:57.417Z,-11.55
2022-12-15T06:14:57.323Z,-11.54
2022-12-15T06:15:57.378Z,-11.56
2022-12-15T06:16:57.293Z,-11.56
2022-12-15T06:17:57.160Z,-11.56
2022-12-15T06:18:57.075Z,-11.55
2022-12-15T06:19:57.326Z,-11.54
2022-12-15T06:20:56.967Z,-11.55
2022-12-15T06:21:56.970Z,-11.55
2022-12-15T06:22:56.852Z,-11.56
2022-12-15T06:23:56.791Z,-11.56
2022-12-15T06:24:56.689Z,-11.55
2022-12-15T06:25:56.652Z,-11.56
2022-12-15T06:26:56.563Z,-11.54
2022-12-15T06:28:01.611Z,-11.59
2022-12-15T06:28:56.422Z,-11.60
2022-12-15T06:29:56.397Z,-11.61
2022-12-15T06:30:56.343Z,-11.61
2022-12-15T06:31:56.413Z,-11.64
2022-12-15T06:32:56.435Z,-11.65
2022-12-15T06:34:01.265Z,-11.64
2022-12-15T06:34:56.050Z,-11.64
2022-12-15T06:35:56.010Z,-11.68
2022-12-15T06:36:55.929Z,-11.70
2022-12-15T06:37:55.948Z,-11.73
2022-12-15T06:38:55.811Z,-11.71
2022-12-15T06:39:55.770Z,-11.74
2022-12-15T06:40:55.679Z,-11.75
2022-12-15T06:41:55.628Z,-11.78
2022-12-15T06:42:55.558Z,-11.79
2022-12-15T06:43:55.784Z,-11.80
2022-12-15T06:44:55.418Z,-11.81
2022-12-15T06:45:55.375Z,-11.81
2022-12-15T06:46:55.380Z,-11.80
2022-12-15T06:48:01.009Z,-11.83
2022-12-15T06:48:55.188Z,-11.85
2022-12-15T06:49:55.377Z,-11.86
2022-12-15T06:50:55.054Z,-11.86
2022-12-15T06:51:55.014Z,-11.89
2022-12-15T06:52:54.936Z,-11.88
2022-12-15T06:53:55.334Z,-11.88
2022-12-15T06:54:54.956Z,-11.88
2022-12-15T06:55:54.791Z,-11.89
2022-12-15T06:56:54.724Z,-11.92
2022-12-15T06:57:54.667Z,-11.94
2022-12-15T06:58:54.595Z,-11.95
2022-12-15T06:59:54.535Z,-11.95
2022-12-15T07:00:54.459Z,-11.94
2022-12-15T07:01:54.960Z,-11.97
2022-12-15T07:02:54.518Z,-11.97
2022-12-15T07:03:54.603Z,-11.99
2022-12-15T07:04:54.243Z,-11.99
2022-12-15T07:05:54.447Z,-11.98
2022-12-15T07:06:54.123Z,-12.00
2022-12-15T07:07:54.091Z,-11.97
2022-12-15T07:08:54.023Z,-11.97
2022-12-15T07:09:53.988Z,-11.98
2022-12-15T07:10:53.902Z,-11.96
2022-12-15T07:11:53.847Z,-11.96
2022-12-15T07:12:53.782Z,-11.97
2022-12-15T07:14:58.722Z,-11.98
2022-12-15T07:15:58.656Z,-11.99
2022-12-15T07:16:58.519Z,-12.01
2022-12-15T07:17:58.481Z,-12.03
2022-12-15T07:18:58.964Z,-12.05
2022-12-15T07:19:58.384Z,-12.08
2022-12-15T07:20:58.332Z,-12.07
2022-12-15T07:21:58.276Z,-12.10
2022-12-15T07:22:58.160Z,-12.11
2022-12-15T07:23:58.726Z,-12.10
2022-12-15T07:24:58.043Z,-12.08
2022-12-15T07:25:58.008Z,-12.06
2022-12-15T07:26:58.214Z,-12.05
2022-12-15T07:27:57.903Z,-12.06
2022-12-15T07:28:57.818Z,-12.03
2022-12-15T07:29:57.777Z,-11.99
2022-12-15T07:30:57.714Z,-12.00
2022-12-15T07:31:57.748Z,-11.99
2022-12-15T07:32:57.856Z,-11.96
2022-12-15T07:33:57.542Z,-11.96
2022-12-15T07:34:57.458Z,-11.94
2022-12-15T07:35:57.441Z,-11.93
2022-12-15T07:36:57.339Z,-11.92
2022-12-15T07:37:57.330Z,-11.92
2022-12-15T07:38:57.249Z,-11.91
2022-12-15T07:39:57.212Z,-11.90
2022-12-15T07:40:57.117Z,-11.92
2022-12-15T07:41:57.069Z,-11.91
2022-12-15T07:42:56.979Z,-11.91
2022-12-15T07:43:56.945Z,-11.93
2022-12-15T07:44:56.898Z,-11.95
2022-12-15T07:45:56.898Z,-11.96
2022-12-15T07:46:56.741Z,-11.96
2022-12-15T07:47:56.671Z,-11.95
2022-12-15T07:48:56.623Z,-11.95
2022-12-15T07:49:56.561Z,-11.94
2022-12-15T07:51:00.987Z,-11.93
2022-12-15T07:51:56.427Z,-11.91
2022-12-15T07:52:56.367Z,-11.90
2022-12-15T07:53:56.314Z,-11.91
2022-12-15T07:54:56.229Z,-11.89
2022-12-15T07:56:06.734Z,-11.88
2022-12-15T07:56:56.117Z,-11.86
2022-12-15T07:57:56.061Z,-11.83
2022-12-15T07:58:55.987Z,-11.80
2022-12-15T07:59:56.099Z,-11.80
2022-12-15T08:00:55.910Z,-11.76
2022-12-15T08:01:56.032Z,-11.76
2022-12-15T08:02:56.139Z,-11.75
2022-12-15T08:04:01.610Z,-11.71
2022-12-15T08:05:01.619Z,-11.69
2022-12-15T08:06:04.167Z,-11.65
2022-12-15T08:07:01.532Z,-11.63
2022-12-15T08:08:01.582Z,-11.60
2022-12-15T08:09:01.379Z,-11.60
2022-12-15T08:10:01.427Z,-11.60
2022-12-15T08:11:01.242Z,-11.57
2022-12-15T08:12:01.191Z,-11.56
2022-12-15T08:13:01.121Z,-11.54
2022-12-15T08:14:02.908Z,-11.54
2022-12-15T08:15:01.036Z,-11.54
2022-12-15T08:16:01.062Z,-11.54
2022-12-15T08:17:04.871Z,-11.53
2022-12-15T08:18:04.821Z,-11.53
2022-12-15T08:19:05.013Z,-11.50
2022-12-15T08:20:09.621Z,-11.50
2022-12-15T08:21:04.634Z,-11.50
2022-12-15T08:22:04.577Z,-11.48
2022-12-15T08:23:04.534Z,-11.48
2022-12-15T08:24:04.417Z,-11.48
2022-12-15T08:25:04.385Z,-11.47
2022-12-15T08:26:04.313Z,-11.47
2022-12-15T08:27:04.232Z,-11.44
2022-12-15T08:28:04.206Z,-11.45
2022-12-15T08:29:32.055Z,-11.45
2022-12-15T08:30:04.082Z,-11.45
2022-12-15T08:31:04.029Z,-11.42
2022-12-15T08:32:04.095Z,-11.44
2022-12-15T08:33:03.863Z,-11.40
2022-12-15T08:34:03.841Z,-11.39
2022-12-15T08:35:03.744Z,-11.39
2022-12-15T08:36:09.606Z,-11.38
2022-12-15T08:37:09.629Z,-11.35
2022-12-15T08:38:09.559Z,-11.36
2022-12-15T08:39:09.531Z,-11.34
2022-12-15T08:40:09.437Z,-11.36
2022-12-15T08:41:09.671Z,-11.34
2022-12-15T08:42:09.342Z,-11.34
2022-12-15T08:43:09.250Z,-11.33
2022-12-15T08:44:09.246Z,-11.31
2022-12-15T08:45:09.155Z,-11.30
2022-12-15T08:46:09.160Z,-11.31
2022-12-15T08:47:09.040Z,-11.26
2022-12-15T08:48:08.978Z,-11.23
2022-12-15T08:49:08.909Z,-11.23
2022-12-15T08:50:08.843Z,-11.22
2022-12-15T08:51:08.814Z,-11.21
2022-12-15T08:52:09.437Z,-11.20
2022-12-15T08:53:41.351Z,-11.20
2022-12-15T08:54:08.723Z,-11.16
2022-12-15T08:55:08.542Z,-11.16
2022-12-15T08:56:08.463Z,-11.14
2022-12-15T08:57:08.388Z,-11.12
2022-12-15T08:58:08.292Z,-11.14
2022-12-15T08:59:08.271Z,-11.10
2022-12-15T09:00:08.428Z,-11.07
2022-12-15T09:01:08.194Z,-11.07
2022-12-15T09:02:08.161Z,-11.06
2022-12-15T09:03:08.124Z,-11.06
2022-12-15T09:04:07.953Z,-11.07
2022-12-15T09:05:07.827Z,-11.04
2022-12-15T09:06:08.032Z,-11.03
2022-12-15T09:07:07.696Z,-11.01
2022-12-15T09:08:07.584Z,-10.96
2022-12-15T09:09:07.554Z,-10.96
2022-12-15T09:10:07.458Z,-10.95
2022-12-15T09:11:07.403Z,-10.94
2022-12-15T09:12:07.479Z,-10.93
2022-12-15T09:13:12.512Z,-10.88
2022-12-15T09:14:12.234Z,-10.85
2022-12-15T09:15:12.122Z,-10.83
2022-12-15T09:16:17.142Z,-10.81
2022-12-15T09:17:23.109Z,-10.78
2022-12-15T09:18:22.939Z,-10.74
2022-12-15T09:19:22.851Z,-10.70
2022-12-15T09:20:22.824Z,-10.66
2022-12-15T09:21:22.702Z,-10.64
2022-12-15T09:22:22.684Z,-10.60
2022-12-15T09:23:22.715Z,-10.53
2022-12-15T09:24:33.931Z,-10.53
2022-12-15T09:25:22.445Z,-10.52
2022-12-15T09:26:22.402Z,-10.50
2022-12-15T09:27:22.322Z,-10.45
2022-12-15T09:28:22.267Z,-10.45
2022-12-15T09:29:22.338Z,-10.40
2022-12-15T09:30:22.152Z,-10.34
2022-12-15T09:31:22.350Z,-10.34
2022-12-15T09:32:22.018Z,-10.33
2022-12-15T09:33:21.933Z,-10.30
2022-12-15T09:34:21.907Z,-10.28
2022-12-15T09:35:22.056Z,-10.26
2022-12-15T09:36:21.752Z,-10.22
2022-12-15T09:37:21.664Z,-10.19
2022-12-15T09:38:21.643Z,-10.17
2022-12-15T09:39:21.548Z,-10.15
2022-12-15T09:40:21.523Z,-10.15
2022-12-15T09:41:21.720Z,-10.12
2022-12-15T09:42:21.413Z,-10.09
2022-12-15T09:43:34.268Z,-10.08
2022-12-15T09:44:22.298Z,-10.05
2022-12-15T09:45:22.194Z,-10.02
2022-12-15T09:46:27.208Z,-10.03
2022-12-15T09:47:27.091Z,-10.02
2022-12-15T09:48:27.040Z,-10.01
2022-12-15T09:49:31.841Z,-9.99
2022-12-15T09:50:31.891Z,-9.96
2022-12-15T09:51:32.841Z,-9.92
2022-12-15T09:52:32.787Z,-9.93
2022-12-15T09:53:54.321Z,-9.92
2022-12-15T09:54:33.050Z,-9.92
2022-12-15T09:55:32.603Z,-9.92
2022-12-15T09:56:32.581Z,-9.90
2022-12-15T09:57:32.506Z,-9.92
2022-12-15T09:58:32.469Z,-9.88
2022-12-15T09:59:32.393Z,-9.89
2022-12-15T10:00:32.350Z,-9.88
2022-12-15T10:01:32.304Z,-9.88
2022-12-15T10:02:32.269Z,-9.86
2022-12-15T10:03:33.019Z,-9.86
2022-12-15T10:04:32.196Z,-9.86
2022-12-15T10:05:57.420Z,-9.84
2022-12-15T10:06:33.551Z,-9.84
2022-12-15T10:07:31.977Z,-9.82
2022-12-15T10:08:31.912Z,-9.83
2022-12-15T10:09:31.970Z,-9.82
2022-12-15T10:10:31.805Z,-9.79
2022-12-15T10:11:31.707Z,-9.77
2022-12-15T10:12:31.683Z,-9.73
2022-12-15T10:13:31.929Z,-9.72
2022-12-15T10:14:31.579Z,-9.69
2022-12-15T10:15:31.770Z,-9.68
2022-12-15T10:16:31.460Z,-9.68
2022-12-15T10:17:31.384Z,-9.68
2022-12-15T10:18:31.377Z,-9.66
2022-12-15T10:19:31.267Z,-9.63
2022-12-15T10:20:31.248Z,-9.59
2022-12-15T10:21:31.204Z,-9.57
2022-12-15T10:22:31.126Z,-9.52
2022-12-15T10:25:30.089Z,-9.53
2022-12-15T10:26:25.369Z,-9.41
2022-12-15T10:27:25.161Z,-9.39
2022-12-15T10:28:24.829Z,-9.37
2022-12-15T10:29:24.823Z,-9.33
2022-12-15T10:30:24.920Z,-9.31
2022-12-15T10:31:24.721Z,-9.30
2022-12-15T10:32:24.672Z,-9.29
2022-12-15T10:33:24.746Z,-9.26
2022-12-15T10:34:24.600Z,-9.22
2022-12-15T10:35:24.525Z,-9.18
2022-12-15T10:36:24.468Z,-9.14
2022-12-15T10:37:24.428Z,-9.14
2022-12-15T10:38:24.516Z,-9.11
2022-12-15T10:39:24.323Z,-9.07
2022-12-15T10:40:24.290Z,-9.02
2022-12-15T10:41:24.221Z,-9.01
2022-12-15T10:42:24.214Z,-8.98
2022-12-15T10:43:24.121Z,-8.95
2022-12-15T10:44:30.332Z,-8.93
2022-12-15T10:45:24.162Z,-8.89
2022-12-15T10:46:24.070Z,-8.88
2022-12-15T10:47:23.940Z,-8.88
2022-12-15T10:48:23.905Z,-8.87
2022-12-15T10:49:23.875Z,-8.87
2022-12-15T10:50:25.109Z,-8.86
2022-12-15T10:51:24.516Z,-8.85
2022-12-15T10:52:23.745Z,-8.82
2022-12-15T10:53:23.667Z,-8.79
2022-12-15T10:54:23.640Z,-8.80
2022-12-15T10:55:08.248Z,-8.80
2022-12-15T10:56:08.667Z,-8.81
2022-12-15T10:57:08.694Z,-8.79
2022-12-15T10:58:08.644Z,-8.75
2022-12-15T10:59:08.573Z,-8.75
2022-12-15T11:00:08.849Z,-8.75
2022-12-15T11:01:08.564Z,-8.75
2022-12-15T11:02:08.682Z,-8.73
2022-12-15T11:03:08.722Z,-8.75
2022-12-15T11:04:08.550Z,-8.73
2022-12-15T11:05:08.351Z,-8.73
2022-12-15T11:06:08.325Z,-8.70
2022-12-15T11:07:08.296Z,-8.70
2022-12-15T11:08:12.251Z,-8.70
2022-12-15T11:09:08.487Z,-8.68
2022-12-15T11:10:08.209Z,-8.69
2022-12-15T11:11:08.182Z,-8.69
2022-12-15T11:12:14.058Z,-8.69
2022-12-15T11:13:14.781Z,-8.69
2022-12-15T11:14:14.189Z,-8.68
2022-12-15T11:15:14.051Z,-8.69
2022-12-15T11:16:13.983Z,-8.67
2022-12-15T11:17:13.969Z,-8.69
2022-12-15T11:18:13.933Z,-8.72
2022-12-15T11:19:13.901Z,-8.69
2022-12-15T11:20:13.847Z,-8.68
2022-12-15T11:21:13.820Z,-8.68
2022-12-15T11:22:13.793Z,-8.67
2022-12-15T11:23:13.745Z,-8.68
2022-12-15T11:24:13.730Z,-8.64
2022-12-15T11:25:13.670Z,-8.61
2022-12-15T11:26:13.633Z,-8.56
2022-12-15T11:27:13.599Z,-8.51
2022-12-15T11:28:13.519Z,-8.45
2022-12-15T11:29:13.507Z,-8.39
2022-12-15T11:30:13.447Z,-8.31
2022-12-15T11:31:13.431Z,-8.27
2022-12-15T11:32:13.498Z,-8.24
2022-12-15T11:33:13.355Z,-8.21
2022-12-15T11:34:13.296Z,-8.19
2022-12-15T11:35:13.265Z,-8.19
2022-12-15T11:36:13.207Z,-8.23
2022-12-15T11:37:13.609Z,-8.24
2022-12-15T11:38:13.416Z,-8.27
2022-12-15T11:39:13.161Z,-8.27
2022-12-15T11:40:13.049Z,-8.30
2022-12-15T11:41:13.029Z,-8.30
2022-12-15T11:42:12.975Z,-8.31
2022-12-15T11:43:13.092Z,-8.37
2022-12-15T11:44:13.023Z,-8.42
2022-12-15T11:45:12.863Z,-8.60
2022-12-15T11:46:12.805Z,-8.68
2022-12-15T11:47:12.796Z,-8.78
2022-12-15T11:48:12.722Z,-8.83
2022-12-15T11:49:12.697Z,-8.84
2022-12-15T11:50:12.669Z,-8.90
2022-12-15T11:51:18.509Z,-8.90
2022-12-15T11:52:18.558Z,-8.88
2022-12-15T11:53:18.775Z,-8.89
2022-12-15T11:54:18.501Z,-8.90
2022-12-15T11:55:18.453Z,-8.88
2022-12-15T11:56:18.421Z,-8.87
2022-12-15T11:57:18.360Z,-8.88
2022-12-15T11:58:18.343Z,-8.86
2022-12-15T11:59:18.301Z,-8.86
2022-12-15T12:00:18.361Z,-8.85
2022-12-15T12:03:12.212Z,-8.93
2022-12-15T12:04:12.131Z,-8.92
2022-12-15T12:05:12.024Z,-8.93
2022-12-15T12:07:16.825Z,-8.96
2022-12-15T12:08:16.928Z,-8.94
2022-12-15T12:09:16.835Z,-8.96
2022-12-15T12:10:16.830Z,-8.94
2022-12-15T12:11:16.986Z,-8.89
2022-12-15T12:12:16.762Z,-8.89
2022-12-15T12:13:16.688Z,-8.90
2022-12-15T12:14:21.871Z,-8.88
2022-12-15T12:15:21.627Z,-8.85
2022-12-15T12:16:21.587Z,-8.82
2022-12-15T12:17:21.555Z,-8.86
2022-12-15T12:18:21.581Z,-8.78
2022-12-15T12:19:21.554Z,-8.77
2022-12-15T12:20:21.456Z,-8.84
2022-12-15T12:21:21.452Z,-8.86
2022-12-15T12:22:21.389Z,-8.85
2022-12-15T12:23:21.400Z,-8.87
2022-12-15T12:24:21.315Z,-8.85
2022-12-15T12:25:21.340Z,-8.81
2022-12-15T12:26:21.521Z,-8.82
2022-12-15T12:27:21.263Z,-8.80
2022-12-15T12:28:21.195Z,-8.79
2022-12-15T12:29:21.216Z,-8.75
2022-12-15T12:30:21.165Z,-8.78
2022-12-15T12:31:25.016Z,-8.75
2022-12-15T12:32:25.099Z,-8.74
2022-12-15T12:33:25.032Z,-8.74
2022-12-15T12:34:25.017Z,-8.74
2022-12-15T12:35:31.724Z,-8.71
2022-12-15T12:36:24.947Z,-8.71
2022-12-15T12:37:25.157Z,-8.67
2022-12-15T12:38:24.880Z,-8.65
2022-12-15T12:39:24.839Z,-8.63
2022-12-15T12:40:24.820Z,-8.59
2022-12-15T12:41:24.758Z,-8.58
2022-12-15T12:42:24.749Z,-8.58
2022-12-15T12:43:24.718Z,-8.58
2022-12-15T12:44:24.677Z,-8.58
2022-12-15T12:45:24.700Z,-8.58
2022-12-15T12:46:24.881Z,-8.59
2022-12-15T12:47:24.568Z,-8.61
2022-12-15T12:48:24.546Z,-8.64
2022-12-15T12:49:26.847Z,-8.64